createdAt,value
2022-11-07T00:01:48.026Z,58.86
2022-11-07T00:04:15.708Z,58.33
2022-11-07T00:06:42.930Z,58.36
2022-11-07T00:09:10.212Z,58.30
2022-11-07T00:11:37.676Z,58.16
2022-11-07T00:14:04.928Z,58.37
2022-11-07T00:16:32.305Z,58.48
2022-11-07T00:18:59.788Z,58.11
2022-11-07T00:21:27.024Z,57.67
2022-11-07T00:23:54.219Z,57.94
2022-11-07T00:26:21.777Z,57.97
2022-11-07T00:28:49.106Z,58.18
2022-11-07T00:31:16.369Z,58.68
2022-11-07T00:33:44.059Z,57.99
2022-11-07T00:36:17.103Z,57.73
2022-11-07T00:38:44.613Z,57.65
2022-11-07T00:41:11.808Z,57.71
2022-11-07T00:43:38.992Z,58.41
2022-11-07T00:46:06.924Z,58.18
2022-11-07T00:48:34.099Z,57.97
2022-11-07T00:51:17.788Z,58.02
2022-11-07T00:53:45.378Z,58.01
2022-11-07T00:56:13.442Z,58.22
2022-11-07T00:58:42.179Z,58.44
2022-11-07T01:01:14.834Z,58.38
2022-11-07T01:04:00.744Z,58.55
2022-11-07T01:06:29.537Z,59.06
2022-11-07T01:08:56.755Z,58.52
2022-11-07T01:11:24.681Z,59.10
2022-11-07T01:13:59.143Z,58.96
2022-11-07T01:16:26.603Z,58.74
2022-11-07T01:18:54.224Z,59.04
2022-11-07T01:21:21.518Z,59.21
2022-11-07T01:23:48.823Z,59.39
2022-11-07T01:26:16.587Z,59.14
2022-11-07T01:28:43.781Z,58.76
2022-11-07T01:31:12.190Z,58.99
2022-11-07T01:33:39.802Z,58.98
2022-11-07T01:36:11.311Z,58.90
2022-11-07T01:38:39.496Z,59.55
2022-11-07T01:41:26.867Z,59.31
2022-11-07T01:43:55.840Z,59.75
2022-11-07T01:46:27.740Z,59.21
2022-11-07T01:48:56.739Z,59.32
2022-11-07T01:51:24.319Z,59.76
2022-11-07T01:53:51.797Z,59.81
2022-11-07T01:56:19.041Z,59.24
2022-11-07T01:58:46.496Z,59.03
2022-11-07T02:01:13.873Z,58.86
2022-11-07T02:03:41.352Z,59.56
2022-11-07T02:06:09.722Z,59.43
2022-11-07T02:08:37.337Z,59.11
2022-11-07T02:11:04.898Z,58.84
2022-11-07T02:13:32.151Z,59.64
2022-11-07T02:15:59.668Z,59.33
2022-11-07T02:18:27.341Z,59.31
2022-11-07T02:20:55.469Z,59.25
2022-11-07T02:23:35.823Z,59.03
2022-11-07T02:26:03.341Z,59.09
2022-11-07T02:28:30.487Z,59.28
2022-11-07T02:30:57.670Z,59.51
2022-11-07T02:33:25.165Z,59.58
2022-11-07T02:35:52.582Z,60.15
2022-11-07T02:38:24.871Z,59.75
2022-11-07T02:40:55.875Z,59.93
2022-11-07T02:43:23.928Z,59.48
2022-11-07T02:45:51.426Z,59.49
2022-11-07T02:48:18.634Z,59.65
2022-11-07T02:50:45.827Z,59.97
2022-11-07T02:53:13.611Z,59.49
2022-11-07T02:55:41.121Z,59.51
2022-11-07T02:58:08.289Z,59.64
2022-11-07T03:00:35.743Z,59.46
2022-11-07T03:03:02.929Z,59.53
2022-11-07T03:05:30.180Z,59.51
2022-11-07T03:07:57.688Z,59.46
2022-11-07T03:10:24.854Z,59.41
2022-11-07T03:12:52.028Z,59.71
2022-11-07T03:15:19.503Z,60.01
2022-11-07T03:17:46.671Z,59.72
2022-11-07T03:20:13.937Z,60.13
2022-11-07T03:22:41.474Z,60.00
2022-11-07T03:25:08.747Z,60.13
2022-11-07T03:27:35.966Z,60.24
2022-11-07T03:30:03.762Z,60.22
2022-11-07T03:32:31.071Z,60.40
2022-11-07T03:34:58.304Z,60.30
2022-11-07T03:37:25.796Z,60.24
2022-11-07T03:39:53.011Z,60.34
2022-11-07T03:42:20.172Z,60.75
2022-11-07T03:44:47.619Z,60.31
2022-11-07T03:47:14.834Z,60.37
2022-11-07T03:49:42.025Z,60.42
2022-11-07T03:52:09.532Z,60.43
2022-11-07T03:54:36.702Z,60.26
2022-11-07T03:57:03.943Z,60.55
2022-11-07T03:59:31.390Z,60.47
2022-11-07T04:01:58.689Z,60.68
2022-11-07T04:04:26.173Z,60.51
2022-11-07T04:06:53.372Z,60.80
2022-11-07T04:09:20.567Z,60.59
2022-11-07T04:12:06.870Z,60.50
2022-11-07T04:14:52.510Z,60.62
2022-11-07T04:17:20.071Z,60.58
2022-11-07T04:19:48.157Z,60.73
2022-11-07T04:22:15.372Z,60.54
2022-11-07T04:24:45.942Z,60.46
2022-11-07T04:27:32.513Z,61.27
2022-11-07T04:30:18.899Z,61.13
2022-11-07T04:32:53.356Z,61.04
2022-11-07T04:35:21.437Z,60.66
2022-11-07T04:37:48.640Z,60.51
2022-11-07T04:40:15.869Z,60.46
2022-11-07T04:42:43.732Z,60.25
2022-11-07T04:45:11.382Z,60.15
2022-11-07T04:47:40.597Z,59.76
2022-11-07T04:50:10.121Z,60.22
2022-11-07T04:52:37.383Z,60.19
2022-11-07T04:55:05.031Z,60.06
2022-11-07T04:57:32.598Z,60.11
2022-11-07T04:59:59.799Z,59.88
2022-11-07T05:02:27.121Z,60.09
2022-11-07T05:04:54.703Z,59.79
2022-11-07T05:07:21.899Z,59.67
2022-11-07T05:09:49.107Z,59.73
2022-11-07T05:12:17.115Z,59.64
2022-11-07T05:14:44.402Z,60.14
2022-11-07T05:17:15.384Z,60.34
2022-11-07T05:19:45.925Z,60.28
2022-11-07T05:22:31.692Z,60.01
2022-11-07T05:24:59.159Z,59.81
2022-11-07T05:27:26.385Z,59.94
2022-11-07T05:29:53.607Z,59.72
2022-11-07T05:32:21.068Z,59.71
2022-11-07T05:34:49.069Z,60.00
2022-11-07T05:37:16.269Z,59.58
2022-11-07T05:39:43.679Z,59.95
2022-11-07T05:42:10.925Z,59.89
2022-11-07T05:44:38.110Z,60.39
2022-11-07T05:47:05.608Z,60.27
2022-11-07T05:49:32.815Z,60.51
2022-11-07T05:52:00.040Z,60.71
2022-11-07T05:54:28.182Z,60.94
2022-11-07T05:56:55.892Z,60.49
2022-11-07T05:59:23.132Z,60.67
2022-11-07T06:01:51.497Z,60.79
2022-11-07T06:04:19.166Z,60.64
2022-11-07T06:06:46.368Z,61.32
2022-11-07T06:09:13.560Z,60.92
2022-11-07T06:11:41.082Z,61.11
2022-11-07T06:14:08.349Z,61.34
2022-11-07T06:16:35.784Z,61.28
2022-11-07T06:19:03.328Z,61.04
2022-11-07T06:21:30.488Z,60.80
2022-11-07T06:23:57.917Z,60.63
2022-11-07T06:26:25.533Z,60.84
2022-11-07T06:28:52.896Z,61.01
2022-11-07T06:31:20.361Z,60.75
2022-11-07T06:33:51.359Z,60.73
2022-11-07T06:36:18.562Z,60.61
2022-11-07T06:38:45.736Z,60.71
2022-11-07T06:41:14.112Z,60.71
2022-11-07T06:43:41.441Z,60.53
2022-11-07T06:46:10.570Z,60.53
2022-11-07T06:48:38.263Z,60.52
2022-11-07T06:51:05.872Z,60.44
2022-11-07T06:53:33.159Z,60.19
2022-11-07T06:56:01.220Z,60.12
2022-11-07T06:58:28.420Z,60.30
2022-11-07T07:00:59.960Z,60.12
2022-11-07T07:03:27.564Z,59.81
2022-11-07T07:05:54.869Z,59.91
2022-11-07T07:08:22.053Z,59.84
2022-11-07T07:10:49.637Z,59.70
2022-11-07T07:13:17.179Z,59.63
2022-11-07T07:15:51.910Z,60.04
2022-11-07T07:18:19.832Z,59.88
2022-11-07T07:20:47.664Z,60.12
2022-11-07T07:23:15.090Z,59.81
2022-11-07T07:25:42.643Z,59.15
2022-11-07T07:28:09.802Z,59.19
2022-11-07T07:30:37.040Z,59.14
2022-11-07T07:33:04.519Z,59.29
2022-11-07T07:35:31.755Z,59.75
2022-11-07T07:37:58.985Z,59.24
2022-11-07T07:40:26.480Z,60.18
2022-11-07T07:42:53.791Z,60.02
2022-11-07T07:45:21.001Z,59.87
2022-11-07T07:47:48.698Z,59.55
2022-11-07T07:50:15.962Z,60.17
2022-11-07T07:52:43.836Z,60.04
2022-11-07T07:55:11.643Z,60.37
2022-11-07T07:57:42.646Z,59.77
2022-11-07T08:00:10.847Z,60.59
2022-11-07T08:02:44.091Z,60.47
2022-11-07T08:05:12.134Z,60.86
2022-11-07T08:07:49.119Z,60.78
2022-11-07T08:10:40.120Z,60.63
2022-11-07T08:13:04.228Z,60.71
2022-11-07T08:15:31.743Z,60.01
2022-11-07T08:18:02.396Z,60.76
2022-11-07T08:20:29.848Z,60.19
2022-11-07T08:23:01.016Z,59.84
2022-11-07T08:25:28.249Z,60.43
2022-11-07T08:27:55.443Z,60.83
2022-11-07T08:30:22.901Z,60.63
2022-11-07T08:32:50.116Z,60.46
2022-11-07T08:35:17.399Z,60.31
2022-11-07T08:37:44.947Z,60.48
2022-11-07T08:40:12.362Z,59.92
2022-11-07T08:42:39.538Z,60.42
2022-11-07T08:45:07.220Z,60.90
2022-11-07T08:47:34.459Z,60.76
2022-11-07T08:50:01.718Z,59.75
2022-11-07T08:52:29.161Z,61.22
2022-11-07T08:54:56.481Z,60.29
2022-11-07T08:57:23.635Z,60.29
2022-11-07T08:59:51.104Z,59.14
2022-11-07T09:05:05.877Z,58.96
2022-11-07T09:07:33.072Z,58.83
2022-11-07T09:10:00.270Z,58.46
2022-11-07T09:12:27.839Z,58.38
2022-11-07T09:14:55.004Z,58.46
2022-11-07T09:17:22.207Z,58.58
2022-11-07T09:19:49.717Z,58.39
2022-11-07T09:22:16.956Z,58.25
2022-11-07T09:24:44.554Z,58.57
2022-11-07T09:27:12.008Z,58.64
2022-11-07T09:29:39.326Z,58.32
2022-11-07T09:32:23.688Z,58.15
2022-11-07T09:34:59.327Z,60.12
2022-11-07T09:37:29.369Z,59.13
2022-11-07T09:39:56.987Z,59.60
2022-11-07T09:42:42.666Z,59.00
2022-11-07T09:45:13.418Z,57.90
2022-11-07T09:47:45.064Z,58.29
2022-11-07T09:50:18.037Z,58.22
2022-11-07T09:52:51.304Z,58.48
2022-11-07T09:55:26.068Z,58.33
2022-11-07T09:57:54.717Z,58.62
2022-11-07T10:00:23.007Z,61.84
2022-11-07T10:02:51.124Z,59.52
2022-11-07T10:05:38.611Z,58.88
2022-11-07T10:08:21.493Z,58.93
2022-11-07T10:10:48.623Z,59.00
2022-11-07T10:13:28.222Z,60.19
2022-11-07T10:16:03.834Z,59.45
2022-11-07T10:18:38.645Z,60.89
2022-11-07T10:21:36.580Z,59.59
2022-11-07T10:24:00.050Z,60.38
2022-11-07T10:26:27.354Z,59.67
2022-11-07T10:28:59.481Z,59.89
2022-11-07T10:31:34.545Z,59.29
2022-11-07T10:34:02.943Z,58.59
2022-11-07T10:36:31.284Z,58.49
2022-11-07T10:38:58.620Z,60.06
2022-11-07T10:41:26.896Z,58.76
2022-11-07T10:44:10.190Z,59.43
2022-11-07T10:46:41.241Z,59.72
2022-11-07T10:49:18.041Z,59.26
2022-11-07T10:51:45.309Z,59.01
2022-11-07T10:54:31.055Z,58.85
2022-11-07T10:56:58.236Z,59.93
2022-11-07T10:59:34.599Z,58.90
2022-11-07T11:02:03.245Z,58.50
2022-11-07T11:04:31.750Z,58.73
2022-11-07T11:07:03.290Z,58.46
2022-11-07T11:09:34.673Z,58.64
2022-11-07T11:12:13.319Z,58.69
2022-11-07T11:14:40.775Z,58.94
2022-11-07T11:17:17.360Z,58.84
2022-11-07T11:19:52.728Z,58.93
2022-11-07T11:22:21.111Z,59.67
2022-11-07T11:25:08.855Z,59.60
2022-11-07T11:27:36.094Z,58.64
2022-11-07T11:30:23.830Z,59.92
2022-11-07T11:32:56.951Z,59.12
2022-11-07T11:35:24.417Z,58.72
2022-11-07T11:37:53.024Z,59.75
2022-11-07T11:40:21.692Z,59.18
2022-11-07T11:42:50.765Z,59.39
2022-11-07T11:45:36.786Z,59.26
2022-11-07T11:48:07.079Z,59.78
2022-11-07T11:50:43.376Z,59.00
2022-11-07T11:53:18.868Z,59.85
2022-11-07T11:56:06.890Z,59.95
2022-11-07T11:58:46.503Z,59.97
2022-11-07T12:01:52.391Z,61.04
2022-11-07T12:04:32.165Z,60.00
2022-11-07T12:07:19.694Z,60.31
2022-11-07T12:09:48.660Z,59.12
2022-11-07T12:12:34.826Z,59.90
2022-11-07T12:15:31.610Z,58.49
2022-11-07T12:17:59.992Z,56.92
2022-11-07T12:20:27.396Z,57.14
2022-11-07T12:23:13.371Z,57.20
2022-11-07T12:25:41.160Z,58.06
2022-11-07T12:28:08.345Z,56.00
2022-11-07T12:30:38.554Z,56.47
2022-11-07T12:33:11.854Z,56.74
2022-11-07T12:35:45.369Z,58.66
2022-11-07T12:38:19.626Z,58.02
2022-11-07T12:40:46.802Z,57.29
2022-11-07T12:43:14.582Z,59.32
2022-11-07T12:45:42.046Z,57.27
2022-11-07T12:48:15.332Z,56.93
2022-11-07T12:51:02.982Z,56.04
2022-11-07T12:53:45.530Z,58.24
2022-11-07T12:56:13.967Z,56.72
2022-11-07T12:58:41.764Z,57.05
2022-11-07T13:01:09.044Z,57.18
2022-11-07T13:03:55.475Z,55.67
2022-11-07T13:06:22.743Z,54.19
2022-11-07T13:09:09.123Z,54.53
2022-11-07T13:11:39.422Z,54.06
2022-11-07T13:14:23.719Z,53.67
2022-11-07T13:16:53.119Z,53.36
2022-11-07T13:19:42.990Z,54.76
2022-11-07T13:22:13.254Z,54.93
2022-11-07T13:24:49.906Z,53.19
2022-11-07T13:27:24.069Z,52.05
2022-11-07T13:29:51.578Z,52.45
2022-11-07T13:32:18.872Z,51.87
2022-11-07T13:34:50.263Z,50.87
2022-11-07T13:37:19.480Z,52.47
2022-11-07T13:39:46.997Z,50.94
2022-11-07T13:42:17.628Z,49.78
2022-11-07T13:44:49.888Z,49.16
2022-11-07T13:47:17.476Z,48.53
2022-11-07T13:49:45.348Z,47.60
2022-11-07T13:52:18.780Z,47.81
2022-11-07T13:54:51.183Z,47.68
2022-11-07T13:57:21.484Z,47.02
2022-11-07T13:59:54.878Z,47.34
2022-11-07T14:02:23.058Z,46.66
2022-11-07T14:07:43.399Z,46.84
2022-11-07T14:10:30.063Z,46.89
2022-11-07T14:13:09.658Z,49.18
2022-11-07T14:15:37.773Z,47.73
2022-11-07T14:18:04.985Z,47.70
2022-11-07T14:20:32.195Z,47.56
2022-11-07T14:23:03.156Z,47.36
2022-11-07T14:25:33.897Z,47.15
2022-11-07T14:28:01.635Z,47.51
2022-11-07T14:30:30.126Z,48.66
2022-11-07T14:32:58.951Z,48.33
2022-11-07T14:35:28.874Z,48.17
2022-11-07T14:37:56.926Z,49.10
2022-11-07T14:40:24.297Z,49.64
2022-11-07T14:42:51.910Z,49.75
2022-11-07T14:45:46.771Z,48.88
2022-11-07T14:48:13.353Z,49.68
2022-11-07T14:50:40.766Z,49.56
2022-11-07T14:53:11.409Z,50.10
2022-11-07T14:56:05.169Z,49.80
2022-11-07T14:58:32.378Z,49.66
2022-11-07T15:01:10.938Z,49.68
2022-11-07T15:03:38.634Z,49.95
2022-11-07T15:06:06.131Z,50.23
2022-11-07T15:08:34.619Z,50.19
2022-11-07T15:11:20.226Z,50.19
2022-11-07T15:13:47.988Z,50.33
2022-11-07T15:16:15.463Z,50.52
2022-11-07T15:18:43.180Z,50.54
2022-11-07T15:21:12.021Z,50.52
2022-11-07T15:23:39.192Z,50.66
2022-11-07T15:26:06.709Z,50.91
2022-11-07T15:28:44.378Z,51.07
2022-11-07T15:31:18.641Z,51.30
2022-11-07T15:33:46.128Z,51.29
2022-11-07T15:36:13.894Z,51.48
2022-11-07T15:38:41.148Z,51.74
2022-11-07T15:41:08.670Z,52.56
2022-11-07T15:43:36.031Z,52.78
2022-11-07T15:46:03.597Z,52.71
2022-11-07T15:48:36.916Z,53.47
2022-11-07T15:51:07.999Z,53.74
2022-11-07T15:53:35.494Z,53.51
2022-11-07T15:56:03.525Z,53.45
2022-11-07T15:58:30.740Z,53.48
2022-11-07T16:00:58.712Z,53.39
2022-11-07T16:03:27.334Z,53.05
2022-11-07T16:05:55.150Z,52.97
2022-11-07T16:08:23.469Z,52.97
2022-11-07T16:10:52.208Z,53.10
2022-11-07T16:13:19.510Z,53.07
2022-11-07T16:15:47.819Z,52.90
2022-11-07T16:18:19.652Z,53.15
2022-11-07T16:20:47.341Z,53.03
2022-11-07T16:23:15.000Z,53.03
2022-11-07T16:25:42.869Z,52.77
2022-11-07T16:28:16.966Z,53.19
2022-11-07T16:30:44.742Z,53.36
2022-11-07T16:33:12.075Z,53.22
2022-11-07T16:35:39.354Z,53.17
2022-11-07T16:38:14.232Z,53.26
2022-11-07T16:40:41.695Z,53.25
2022-11-07T16:43:10.382Z,53.56
2022-11-07T16:45:38.152Z,53.43
2022-11-07T16:48:05.506Z,52.95
2022-11-07T16:50:33.112Z,52.53
2022-11-07T16:53:00.911Z,52.04
2022-11-07T16:55:28.205Z,52.64
2022-11-07T16:57:55.894Z,52.63
2022-11-07T17:00:23.607Z,52.38
2022-11-07T17:02:51.234Z,52.51
2022-11-07T17:05:18.936Z,52.37
2022-11-07T17:07:46.151Z,52.78
2022-11-07T17:10:14.464Z,53.91
2022-11-07T17:12:42.028Z,52.80
2022-11-07T17:15:09.707Z,52.88
2022-11-07T17:17:36.958Z,53.24
2022-11-07T17:20:05.028Z,52.56
2022-11-07T17:22:32.306Z,52.50
2022-11-07T17:24:59.653Z,51.89
2022-11-07T17:27:27.255Z,52.02
2022-11-07T17:29:54.771Z,51.74
2022-11-07T17:32:22.250Z,51.63
2022-11-07T17:35:04.712Z,51.28
2022-11-07T17:37:37.578Z,51.37
2022-11-07T17:40:06.589Z,51.10
2022-11-07T17:42:38.019Z,51.20
2022-11-07T17:45:07.271Z,51.31
2022-11-07T17:47:35.401Z,51.52
2022-11-07T17:50:03.226Z,52.06
2022-11-07T17:52:30.961Z,52.53
2022-11-07T17:54:58.316Z,51.33
2022-11-07T17:57:25.499Z,51.91
2022-11-07T17:59:53.160Z,51.56
2022-11-07T18:02:20.748Z,51.31
2022-11-07T18:04:49.053Z,52.21
2022-11-07T18:07:16.495Z,53.03
2022-11-07T18:09:43.998Z,53.37
2022-11-07T18:12:11.698Z,53.81
2022-11-07T18:14:39.252Z,53.72
2022-11-07T18:17:06.679Z,54.05
2022-11-07T18:19:34.470Z,53.83
2022-11-07T18:22:01.891Z,53.59
2022-11-07T18:24:30.294Z,53.83
2022-11-07T18:26:58.116Z,54.35
2022-11-07T18:29:25.521Z,53.91
2022-11-07T18:31:52.997Z,54.29
2022-11-07T18:34:20.812Z,55.92
2022-11-07T18:36:51.362Z,55.00
2022-11-07T18:39:22.224Z,54.98
2022-11-07T18:41:50.735Z,54.30
2022-11-07T18:44:18.305Z,53.60
2022-11-07T18:46:45.878Z,54.12
2022-11-07T18:49:14.127Z,54.32
2022-11-07T18:51:42.898Z,53.85
2022-11-07T18:54:10.433Z,53.42
2022-11-07T18:56:38.714Z,53.18
2022-11-07T18:59:06.141Z,53.25
2022-11-07T19:01:34.136Z,53.07
2022-11-07T19:04:03.678Z,53.21
2022-11-07T19:06:31.361Z,52.99
2022-11-07T19:08:58.825Z,53.18
2022-11-07T19:11:29.221Z,53.29
2022-11-07T19:13:57.540Z,53.61
2022-11-07T19:16:24.889Z,52.74
2022-11-07T19:18:52.584Z,52.28
2022-11-07T19:21:21.247Z,52.40
2022-11-07T19:23:48.894Z,51.66
2022-11-07T19:26:16.596Z,51.62
2022-11-07T19:28:43.985Z,52.96
2022-11-07T19:31:12.993Z,53.22
2022-11-07T19:33:41.475Z,54.06
2022-11-07T19:36:12.517Z,54.15
2022-11-07T19:38:40.041Z,53.58
2022-11-07T19:41:08.016Z,54.05
2022-11-07T19:43:36.161Z,54.41
2022-11-07T19:46:07.400Z,55.33
2022-11-07T19:48:35.071Z,55.83
2022-11-07T19:51:06.447Z,56.02
2022-11-07T19:53:33.929Z,55.83
2022-11-07T19:56:06.905Z,55.83
2022-11-07T19:58:35.022Z,55.85
2022-11-07T20:01:03.043Z,55.91
2022-11-07T20:03:30.841Z,56.13
2022-11-07T20:05:58.282Z,55.83
2022-11-07T20:08:27.381Z,55.02
2022-11-07T20:10:55.051Z,55.26
2022-11-07T20:13:22.505Z,55.68
2022-11-07T20:15:49.939Z,55.39
2022-11-07T20:18:17.574Z,55.37
2022-11-07T20:20:45.925Z,55.04
2022-11-07T20:23:13.345Z,55.15
2022-11-07T20:25:42.890Z,54.45
2022-11-07T20:28:10.345Z,55.33
2022-11-07T20:30:40.602Z,55.22
2022-11-07T20:33:09.773Z,54.88
2022-11-07T20:35:37.271Z,55.66
2022-11-07T20:38:06.243Z,55.93
2022-11-07T20:40:34.373Z,55.14
2022-11-07T20:43:02.846Z,55.90
2022-11-07T20:45:30.246Z,54.89
2022-11-07T20:47:57.943Z,55.36
2022-11-07T20:50:25.374Z,55.87
2022-11-07T20:52:57.308Z,56.64
2022-11-07T20:55:27.108Z,55.69
2022-11-07T20:57:55.740Z,55.15
2022-11-07T21:00:24.336Z,56.00
2022-11-07T21:02:51.842Z,57.05
2022-11-07T21:05:19.271Z,56.02
2022-11-07T21:07:48.339Z,56.44
2022-11-07T21:10:15.948Z,55.41
2022-11-07T21:12:43.730Z,54.27
2022-11-07T21:15:11.346Z,54.99
2022-11-07T21:17:38.879Z,55.73
2022-11-07T21:20:06.475Z,56.54
2022-11-07T21:22:35.476Z,56.39
2022-11-07T21:25:04.793Z,55.58
2022-11-07T21:27:34.174Z,55.41
2022-11-07T21:30:01.397Z,55.59
2022-11-07T21:32:28.952Z,55.68
2022-11-07T21:34:56.216Z,56.60
2022-11-07T21:37:23.429Z,55.57
2022-11-07T21:39:50.930Z,54.42
2022-11-07T21:42:18.340Z,55.02
2022-11-07T21:44:45.573Z,55.16
2022-11-07T21:47:13.129Z,54.51
2022-11-07T21:49:40.371Z,53.54
2022-11-07T21:52:07.647Z,54.16
2022-11-07T21:54:35.116Z,54.66
2022-11-07T21:57:02.467Z,53.65
2022-11-07T21:59:29.793Z,54.48
2022-11-07T22:01:57.548Z,54.33
2022-11-07T22:04:25.263Z,54.65
2022-11-07T22:06:52.484Z,54.08
2022-11-07T22:09:20.805Z,55.45
2022-11-07T22:11:48.903Z,53.47
2022-11-07T22:14:17.509Z,54.12
2022-11-07T22:16:45.016Z,53.75
2022-11-07T22:19:13.135Z,54.98
2022-11-07T22:21:40.768Z,55.81
2022-11-07T22:24:08.402Z,57.00
2022-11-07T22:26:35.914Z,57.43
2022-11-07T22:29:03.508Z,57.70
2022-11-07T22:31:30.969Z,59.25
2022-11-07T22:33:59.375Z,59.04
2022-11-07T22:36:26.693Z,58.56
2022-11-07T22:38:53.929Z,58.15
2022-11-07T22:41:22.218Z,57.81
2022-11-07T22:43:49.779Z,58.10
2022-11-07T22:46:18.192Z,57.86
2022-11-07T22:48:45.887Z,57.47
2022-11-07T22:51:14.186Z,56.79
2022-11-07T22:53:41.413Z,56.95
2022-11-07T22:56:08.831Z,57.61
2022-11-07T22:58:36.077Z,57.60
2022-11-07T23:01:03.683Z,57.27
2022-11-07T23:03:31.881Z,56.62
2022-11-07T23:06:02.524Z,56.57
2022-11-07T23:08:29.750Z,56.49
2022-11-07T23:11:14.409Z,56.44
2022-11-07T23:13:45.834Z,55.91
2022-11-07T23:16:25.153Z,56.08
2022-11-07T23:18:53.776Z,56.41
2022-11-07T23:21:21.318Z,56.80
2022-11-07T23:23:48.551Z,56.79
2022-11-07T23:26:16.934Z,56.89
2022-11-07T23:28:44.676Z,57.21
2022-11-07T23:31:12.013Z,57.55
2022-11-07T23:33:39.630Z,56.88
2022-11-07T23:36:07.948Z,57.82
2022-11-07T23:38:35.162Z,57.73
2022-11-07T23:41:03.133Z,58.04
2022-11-07T23:43:30.573Z,58.69
2022-11-07T23:46:16.753Z,59.05
2022-11-07T23:49:02.669Z,58.95
2022-11-07T23:51:29.901Z,58.28
2022-11-07T23:54:15.900Z,58.82
2022-11-07T23:56:43.264Z,58.35
2022-11-07T23:59:29.532Z,59.10
